Time;durP1;ratioP1;P1;durP2;ratioP2;P2;SDS_P1;SDS_P2;PMS_P1;PMS_P2;Temp;Humidity;BMP_temperature;BMP_pressure;BME280_temperature;BME280_humidity;BME280_pressure;Samples;Min_cycle;Max_cycle;Signal;HPM_P1;HPM_P2
2022/03/21 00:20:15;;;;;;;4.53;3.35;;;;;;;2.11;35.69;101854.06;4973692;28;33352;-96
2022/03/21 00:24:05;;;;;;;3.15;2.85;;;;;;;2.34;35.27;101850.19;4982336;28;33860;-96
2022/03/21 00:27:56;;;;;;;7.43;3.42;;;;;;;2.50;34.77;101860.47;5048810;27;34165;-96
2022/03/21 00:32:01;;;;;;;3.60;2.83;;;;;;;2.35;35.19;101855.41;5166331;27;32613;-96
2022/03/21 00:36:09;;;;;;;3.67;3.17;;;;;;;2.35;35.21;101859.66;5238326;27;34012;-96
2022/03/21 00:40:11;;;;;;;3.83;2.85;;;;;;;2.30;35.01;101848.28;5253484;27;34605;-96
2022/03/21 00:43:25;;;;;;;3.90;3.42;;;;;;;2.37;34.58;101852.03;5251739;27;34229;-96
2022/03/21 00:46:37;;;;;;;3.03;2.62;;;;;;;2.15;34.92;101850.87;5250927;27;32114;-96
2022/03/21 00:49:32;;;;;;;4.78;3.62;;;;;;;2.28;34.82;101839.63;5236834;27;32989;-96
2022/03/21 00:52:42;;;;;;;5.93;3.40;;;;;;;2.31;34.69;101844.91;5252457;27;34908;-96
2022/03/21 00:56:12;;;;;;;4.32;2.83;;;;;;;2.10;35.28;101842.94;5234598;27;33026;-95
2022/03/21 00:59:33;;;;;;;2.90;2.60;;;;;;;2.30;34.82;101833.78;5252834;27;35476;-94
2022/03/21 01:02:26;;;;;;;6.85;3.67;;;;;;;2.29;34.55;101838.81;5252919;27;34083;-95
2022/03/21 01:04:57;;;;;;;5.57;3.60;;;;;;;2.31;34.61;101838.09;5251659;27;34495;-96
2022/03/21 01:08:08;;;;;;;3.53;2.62;;;;;;;2.35;34.63;101836.59;5250445;27;33892;-96
2022/03/21 01:10:40;;;;;;;4.80;2.70;;;;;;;2.19;34.99;101836.56;5250712;27;33758;-96
2022/03/21 01:14:13;;;;;;;6.60;3.50;;;;;;;2.38;34.32;101839.31;5230926;27;34432;-94
2022/03/21 01:17:26;;;;;;;8.30;3.83;;;;;;;2.37;34.98;101842.69;5252513;27;33313;-96
2022/03/21 01:20:57;;;;;;;3.67;3.17;;;;;;;2.47;35.27;101834.72;5252598;27;33228;-96
2022/03/21 01:24:11;;;;;;;5.28;3.67;;;;;;;2.30;35.85;101838.03;5254045;27;34481;-94
2022/03/21 01:26:45;;;;;;;4.68;3.12;;;;;;;2.32;35.86;101828.72;5251238;27;33794;-95
2022/03/21 01:29:58;;;;;;;3.30;2.87;;;;;;;2.21;36.14;101830.72;5232563;27;33659;-96
2022/03/21 01:33:10;;;;;;;4.65;3.15;;;;;;;2.43;35.60;101832.75;5253134;27;34321;-95
2022/03/21 01:36:29;;;;;;;7.22;3.00;;;;;;;2.24;35.70;101830.88;5236358;27;32474;-95
2022/03/21 01:39:21;;;;;;;3.40;2.75;;;;;;;2.06;36.06;101827.31;5251761;27;33540;-96
2022/03/21 01:42:15;;;;;;;3.75;3.08;;;;;;;2.20;35.64;101823.84;5252447;27;33468;-95
2022/03/21 01:45:45;;;;;;;4.10;2.83;;;;;;;2.17;35.54;101827.91;5232602;27;33165;-96
2022/03/21 01:48:16;;;;;;;3.92;3.42;;;;;;;2.20;35.74;101828.06;5232562;27;33347;-96
2022/03/21 01:51:46;;;;;;;3.65;2.83;;;;;;;2.21;35.85;101822.16;5253205;27;32542;-94
2022/03/21 01:55:45;;;;;;;7.22;3.95;;;;;;;2.07;36.07;101823.94;5250910;27;33982;-95
2022/03/21 01:59:19;;;;;;;3.30;3.00;;;;;;;2.02;35.77;101823.69;5258341;27;32678;-95
2022/03/21 02:02:27;;;;;;;4.05;3.08;;;;;;;1.92;36.01;101823.97;5237487;27;34341;-95
2022/03/21 02:06:01;;;;;;;4.97;2.95;;;;;;;1.90;36.02;101823.87;5242522;27;34966;-95
2022/03/21 02:09:10;;;;;;;3.62;2.80;;;;;;;1.70;36.30;101825.31;5251634;27;33293;-93
2022/03/21 02:12:22;;;;;;;5.00;3.22;;;;;;;1.78;36.21;101812.09;5232191;27;32335;-95
2022/03/21 02:15:31;;;;;;;3.58;3.00;;;;;;;1.80;36.25;101813.06;5231488;27;32891;-96
2022/03/21 02:18:49;;;;;;;4.00;2.92;;;;;;;1.91;36.25;101812.00;5233061;27;33102;-95
2022/03/21 02:22:27;;;;;;;3.92;3.10;;;;;;;1.93;36.23;101812.94;5249025;27;32810;-93
2022/03/21 02:26:17;;;;;;;3.30;2.55;;;;;;;2.01;35.81;101803.16;5249285;27;32653;-93
2022/03/21 02:29:49;;;;;;;3.92;2.83;;;;;;;1.88;36.03;101801.56;5216286;27;32820;-94
2022/03/21 02:33:38;;;;;;;4.37;2.70;;;;;;;1.99;35.47;101803.06;5232203;27;35029;-95
2022/03/21 02:37:27;;;;;;;7.05;3.40;;;;;;;1.90;35.67;101799.97;5211310;27;32871;-92
2022/03/21 02:41:41;;;;;;;3.83;2.85;;;;;;;1.76;35.97;101808.56;5201967;27;32205;-93
2022/03/21 02:44:51;;;;;;;6.12;3.75;;;;;;;1.94;35.85;101796.78;5235310;27;33387;-95
2022/03/21 02:48:01;;;;;;;6.95;4.05;;;;;;;1.66;36.59;101808.03;5235458;27;34112;-93
2022/03/21 02:51:30;;;;;;;5.82;3.47;;;;;;;1.81;36.57;101797.81;5249592;27;32754;-93
2022/03/21 02:54:19;;;;;;;4.70;2.92;;;;;;;1.81;36.46;101804.56;5211255;27;35920;-92
2022/03/21 02:57:31;;;;;;;3.55;3.20;;;;;;;1.82;36.37;101804.66;5232037;27;32966;-95
2022/03/21 03:01:07;;;;;;;3.85;2.67;;;;;;;1.61;36.48;101801.78;5229766;27;34089;-94
2022/03/21 03:03:56;;;;;;;4.28;3.45;;;;;;;1.85;35.96;101801.41;5209857;27;33986;-95
2022/03/21 03:06:47;;;;;;;5.47;2.90;;;;;;;1.81;35.82;101802.91;5233066;27;33773;-95
2022/03/21 03:09:36;;;;;;;4.37;3.10;;;;;;;1.66;36.25;101802.03;5235284;27;32581;-95
2022/03/21 03:12:49;;;;;;;4.25;3.08;;;;;;;1.82;36.12;101802.09;5215836;27;32577;-95
2022/03/21 03:15:38;;;;;;;4.95;3.58;;;;;;;1.60;36.52;101794.91;5237677;27;34470;-95
2022/03/21 03:19:07;;;;;;;2.70;2.50;;;;;;;1.65;36.38;101803.72;5236727;27;33542;-92
2022/03/21 03:22:36;;;;;;;4.95;3.15;;;;;;;1.88;35.86;101797.31;5210976;27;31656;-94
2022/03/21 03:26:26;;;;;;;3.37;3.08;;;;;;;1.91;35.84;101806.87;5228224;27;32487;-92
2022/03/21 03:29:42;;;;;;;3.35;2.72;;;;;;;1.91;35.93;101801.75;5246393;27;32996;-93
2022/03/21 03:32:31;;;;;;;6.10;3.15;;;;;;;1.75;36.17;101805.12;5249305;27;32847;-95
2022/03/21 03:36:00;;;;;;;5.05;3.22;;;;;;;1.70;35.93;101786.06;5252643;27;32007;-95
2022/03/21 03:39:29;;;;;;;4.90;3.40;;;;;;;1.75;35.68;101811.91;5253531;27;32364;-92
2022/03/21 03:42:38;;;;;;;3.10;2.80;;;;;;;1.54;37.04;101807.31;5270303;27;32836;-95
2022/03/21 03:46:28;;;;;;;4.30;3.17;;;;;;;1.21;37.82;101814.81;5258961;27;34454;-94
2022/03/21 03:49:59;;;;;;;4.95;3.03;;;;;;;1.42;36.95;101814.28;5253940;27;33259;-93
2022/03/21 03:53:08;;;;;;;3.00;2.50;;;;;;;1.52;37.01;101815.72;5231660;27;33804;-95
2022/03/21 03:55:58;;;;;;;3.58;2.72;;;;;;;1.73;36.72;101821.19;5252499;27;33784;-93
2022/03/21 03:58:48;;;;;;;7.60;3.87;;;;;;;1.79;36.93;101819.87;5234263;27;33274;-94
2022/03/21 04:01:39;;;;;;;5.53;3.00;;;;;;;1.78;36.58;101807.84;5248349;27;243955;-93
2022/03/21 04:04:49;;;;;;;4.87;3.15;;;;;;;1.65;37.09;101823.31;5240150;27;32519;-93
2022/03/21 04:07:38;;;;;;;6.50;3.50;;;;;;;1.90;36.60;101823.00;5259231;27;34339;-94
2022/03/21 04:10:33;;;;;;;5.47;3.20;;;;;;;1.91;36.96;101823.09;5258136;27;33722;-93
2022/03/21 04:13:03;;;;;;;4.50;2.75;;;;;;;1.85;36.86;101817.63;5255067;27;32529;-93
2022/03/21 04:15:41;;;;;;;6.68;3.33;;;;;;;1.73;37.22;101808.38;5253142;27;33477;-92
2022/03/21 04:18:34;;;;;;;5.45;3.28;;;;;;;1.71;37.09;101801.50;5233996;27;33264;-92
2022/03/21 04:21:24;;;;;;;5.10;3.08;;;;;;;1.35;37.95;101824.97;5256405;27;33665;-94
2022/03/21 04:23:53;;;;;;;4.95;3.40;;;;;;;1.61;38.15;101817.13;5251873;27;33661;-91
2022/03/21 04:26:23;;;;;;;4.30;3.45;;;;;;;1.89;36.87;101821.25;5254633;27;34104;-92
2022/03/21 04:28:55;;;;;;;4.57;3.25;;;;;;;1.76;37.66;101824.78;5242369;27;33177;-93
2022/03/21 04:31:40;;;;;;;4.85;3.22;;;;;;;1.73;37.77;101816.06;5274290;27;33498;-92
2022/03/21 04:34:20;;;;;;;5.82;3.22;;;;;;;1.61;38.42;101827.34;5255155;27;31921;-92
2022/03/21 04:36:53;;;;;;;3.33;2.80;;;;;;;1.63;38.29;101822.34;5271596;27;33906;-92
2022/03/21 04:39:21;;;;;;;2.62;2.40;;;;;;;1.52;38.23;101829.38;5251901;27;34158;-91
2022/03/21 04:41:51;;;;;;;5.40;3.92;;;;;;;1.29;38.59;101835.72;5232806;27;33497;-92
2022/03/21 04:44:24;;;;;;;4.93;3.03;;;;;;;1.24;38.72;101832.03;5276737;27;32605;-93
2022/03/21 04:46:54;;;;;;;3.37;3.03;;;;;;;1.19;38.56;101826.63;5252571;27;33951;-92
2022/03/21 04:49:24;;;;;;;4.82;3.30;;;;;;;1.03;38.72;101835.06;5233890;27;34307;-94
2022/03/21 04:51:54;;;;;;;4.75;3.15;;;;;;;1.31;38.30;101830.72;5269926;27;34128;-91
2022/03/21 04:54:23;;;;;;;4.95;3.75;;;;;;;1.28;38.14;101833.94;5251818;27;33154;-92
2022/03/21 04:56:52;;;;;;;7.07;4.12;;;;;;;1.33;38.59;101837.69;5257494;27;33147;-93
2022/03/21 04:59:21;;;;;;;4.97;3.15;;;;;;;1.32;38.14;101841.00;5251044;27;33032;-92
2022/03/21 05:01:51;;;;;;;5.20;3.10;;;;;;;1.40;38.15;101834.69;5232185;27;33428;-91
2022/03/21 05:04:22;;;;;;;4.03;3.10;;;;;;;1.32;38.72;101842.69;5271537;27;33934;-91
2022/03/21 05:06:53;;;;;;;4.07;3.22;;;;;;;1.28;38.33;101842.53;5268887;27;32988;-93
2022/03/21 05:09:22;;;;;;;4.62;3.30;;;;;;;1.47;38.38;101841.94;5271144;27;34791;-90
2022/03/21 05:11:52;;;;;;;3.28;2.97;;;;;;;1.36;38.75;101844.66;5276560;27;33410;-93
2022/03/21 05:14:21;;;;;;;3.47;2.78;;;;;;;1.10;39.34;101845.66;5270368;27;34100;-92
2022/03/21 05:16:50;;;;;;;3.95;3.35;;;;;;;1.14;39.02;101856.16;5269304;27;33964;-93
2022/03/21 05:19:19;;;;;;;5.15;3.22;;;;;;;1.36;38.44;101849.75;5270733;27;33316;-92
2022/03/21 05:21:48;;;;;;;4.12;3.35;;;;;;;1.47;38.36;101843.56;5250705;27;32524;-90
2022/03/21 05:32:39;;;;;;;5.60;3.62;;;;;;;1.57;38.17;101853.56;5269339;27;33532;-92
2022/03/21 05:37:55;;;;;;;5.03;3.25;;;;;;;1.77;37.92;101851.28;5269312;27;33613;-92
2022/03/21 05:40:35;;;;;;;4.55;3.75;;;;;;;1.79;37.85;101854.78;5250902;27;33297;-90
2022/03/21 05:43:04;;;;;;;4.15;3.00;;;;;;;1.94;37.92;101857.34;5270972;27;33629;-92
2022/03/21 05:45:33;;;;;;;6.50;3.20;;;;;;;1.99;37.71;101863.63;5276337;27;33504;-91
2022/03/21 05:50:51;;;;;;;6.43;2.85;;;;;;;1.87;38.00;101866.34;5250277;27;32643;-91
2022/03/21 05:53:20;;;;;;;5.22;3.45;;;;;;;2.16;37.96;101862.00;5250077;27;32557;-92
2022/03/21 05:55:50;;;;;;;6.12;3.37;;;;;;;2.50;36.88;101860.47;5248892;27;33031;-92
2022/03/21 05:58:19;;;;;;;5.27;3.37;;;;;;;2.38;37.18;101853.81;5276332;27;33746;-90
2022/03/21 06:00:48;;;;;;;4.60;2.90;;;;;;;2.40;37.22;101854.78;5274348;27;35042;-91
2022/03/21 06:03:17;;;;;;;6.28;3.42;;;;;;;2.58;37.42;101862.56;5249463;27;32450;-91
2022/03/21 06:05:46;;;;;;;7.80;2.78;;;;;;;2.66;36.54;101863.87;5269974;27;33159;-90
2022/03/21 06:08:15;;;;;;;4.30;3.17;;;;;;;2.59;37.55;101865.22;5248511;27;32419;-91
2022/03/21 06:10:44;;;;;;;4.22;2.95;;;;;;;2.70;36.78;101864.09;5269972;27;34590;-94
2022/03/21 06:13:15;;;;;;;6.10;3.22;;;;;;;2.72;37.10;101870.22;5274354;27;33403;-92
2022/03/21 06:15:47;;;;;;;3.70;2.85;;;;;;;2.89;36.98;101871.09;5248331;27;33342;-92
2022/03/21 06:18:15;;;;;;;4.85;3.30;;;;;;;2.96;37.17;101869.75;5270051;27;33986;-92
2022/03/21 06:20:44;;;;;;;6.25;3.78;;;;;;;3.18;36.11;101879.44;5269957;27;33768;-90
2022/03/21 06:23:13;;;;;;;5.78;4.12;;;;;;;2.70;36.14;101876.03;5267131;27;34484;-93
2022/03/21 06:25:42;;;;;;;3.53;2.87;;;;;;;3.20;35.57;101875.28;5273687;27;33905;-91
2022/03/21 06:28:11;;;;;;;7.43;3.97;;;;;;;3.63;34.92;101880.91;5265644;27;33615;-91
2022/03/21 06:30:41;;;;;;;9.50;4.07;;;;;;;3.67;34.52;101884.50;5269311;27;34638;-90
2022/03/21 06:33:10;;;;;;;;;;;;;;;3.30;35.11;101879.19;5267062;27;33084;-94
2022/03/21 06:35:39;;;;;;;4.12;3.47;;;;;;;3.02;35.86;101874.31;5266819;27;32810;-92
2022/03/21 06:38:10;;;;;;;6.90;3.80;;;;;;;3.13;35.20;101876.63;5274131;27;33246;-92
2022/03/21 06:40:39;;;;;;;9.60;3.47;;;;;;;3.23;35.16;101885.69;5274140;27;33585;-92
2022/03/21 06:43:08;;;;;;;7.40;4.22;;;;;;;3.15;35.39;101879.28;5272257;27;34549;-95
2022/03/21 06:45:41;;;;;;;6.87;4.10;;;;;;;3.57;34.94;101884.84;5251439;27;33715;-93
2022/03/21 06:48:10;;;;;;;5.40;3.28;;;;;;;3.46;35.13;101883.44;5251212;27;33919;-92
2022/03/21 06:50:39;;;;;;;7.18;4.40;;;;;;;3.81;34.73;101885.19;5270229;27;34461;-93
2022/03/21 06:53:08;;;;;;;9.48;5.10;;;;;;;3.87;34.80;101889.75;5276507;27;33810;-94
2022/03/21 06:55:37;;;;;;;6.15;3.67;;;;;;;3.59;34.54;101888.38;5270748;27;33061;-95
2022/03/21 06:58:09;;;;;;;5.72;3.50;;;;;;;4.11;34.19;101888.41;5252021;27;32834;-93
2022/03/21 07:00:38;;;;;;;6.22;3.75;;;;;;;3.73;34.79;101889.94;5251960;27;33940;-91
2022/03/21 07:03:15;;;;;;;6.65;4.47;;;;;;;4.03;34.31;101892.25;5252178;27;32562;-93
2022/03/21 07:05:45;;;;;;;6.87;4.82;;;;;;;4.11;34.30;101888.41;5256019;27;32769;-93
2022/03/21 07:08:22;;;;;;;8.15;4.43;;;;;;;4.32;33.55;101892.78;5235266;27;35723;-94
2022/03/21 07:10:51;;;;;;;6.30;3.60;;;;;;;4.38;33.66;101898.22;5251564;27;33345;-94
2022/03/21 07:13:22;;;;;;;7.75;4.15;;;;;;;4.57;33.43;101893.16;5271256;27;33770;-93
2022/03/21 07:16:16;;;;;;;8.07;4.45;;;;;;;4.35;33.86;101901.53;5274074;27;33671;-93
2022/03/21 07:18:54;;;;;;;7.05;3.65;;;;;;;4.77;33.42;101896.62;5271747;27;33069;-94
2022/03/21 07:21:43;;;;;;;7.28;4.45;;;;;;;5.44;32.79;101896.19;5253431;27;32399;-94
2022/03/21 07:24:13;;;;;;;5.43;3.67;;;;;;;5.17;32.46;101897.53;5277399;27;33821;-94
2022/03/21 07:26:43;;;;;;;6.37;4.07;;;;;;;5.14;32.15;101896.56;5277403;27;32036;-95
2022/03/21 07:29:16;;;;;;;5.03;3.85;;;;;;;5.07;31.60;101892.00;5272623;27;33227;-95
2022/03/21 07:31:53;;;;;;;6.43;3.60;;;;;;;5.38;31.56;101895.91;5269897;27;33294;-94
2022/03/21 07:34:24;;;;;;;10.63;4.30;;;;;;;5.88;30.94;101902.31;5253088;27;33105;-95
2022/03/21 07:36:53;;;;;;;5.03;3.92;;;;;;;5.83;30.85;101898.69;5254276;27;32692;-95
2022/03/21 07:39:23;;;;;;;7.30;4.28;;;;;;;5.43;30.63;101901.25;5258272;27;33678;-93
2022/03/21 07:41:59;;;;;;;6.55;3.15;;;;;;;5.46;30.70;101899.72;5252272;27;34005;-95
2022/03/21 07:47:21;;;;;;;5.85;4.22;;;;;;;5.45;30.83;101899.62;5272778;27;33786;-95
2022/03/21 07:49:55;;;;;;;4.28;3.25;;;;;;;5.89;30.47;101906.62;5272836;27;33397;-95
2022/03/21 07:52:27;;;;;;;8.48;4.45;;;;;;;5.84;30.05;101903.00;5271621;27;33592;-94
2022/03/21 07:54:56;;;;;;;7.95;4.75;;;;;;;5.43;30.63;101912.41;5254997;27;32293;-95
2022/03/21 07:57:31;;;;;;;5.60;3.75;;;;;;;5.96;30.28;101907.81;5258477;27;31940;-95
2022/03/21 08:00:06;;;;;;;7.57;5.07;;;;;;;6.31;29.53;101913.53;5272441;27;33065;-95
2022/03/21 08:02:58;;;;;;;8.10;4.07;;;;;;;6.25;30.00;101903.84;5274260;27;33949;-95
2022/03/21 08:05:29;;;;;;;6.87;4.43;;;;;;;6.09;29.82;101906.59;5253004;27;32721;-94
2022/03/21 08:08:01;;;;;;;8.63;4.40;;;;;;;6.30;29.50;101914.34;5272649;27;33909;-93
2022/03/21 08:10:31;;;;;;;7.57;4.55;;;;;;;6.69;29.51;101907.25;5272000;27;33881;-95
2022/03/21 08:13:01;;;;;;;6.18;3.80;;;;;;;6.07;30.14;101911.72;5276019;27;34599;-95
2022/03/21 08:15:31;;;;;;;7.18;4.78;;;;;;;6.50;29.51;101902.22;5248687;27;32906;-94
2022/03/21 08:18:05;;;;;;;9.03;3.80;;;;;;;6.34;29.54;101904.22;5269971;27;33856;-94
2022/03/21 08:20:39;;;;;;;6.45;4.28;;;;;;;6.78;29.27;101902.47;5232624;27;33179;-96
2022/03/21 08:23:11;;;;;;;7.05;4.93;;;;;;;7.38;28.76;101908.94;5250764;27;33359;-95
2022/03/21 08:26:00;;;;;;;5.60;3.92;;;;;;;6.73;29.18;101903.12;5273657;27;34425;-94
2022/03/21 08:28:30;;;;;;;5.57;3.40;;;;;;;7.07;28.75;101900.09;5256418;27;33233;-95
2022/03/21 08:30:59;;;;;;;4.45;3.40;;;;;;;7.49;28.09;101899.88;5273100;27;34040;-94
2022/03/21 08:33:29;;;;;;;6.47;4.32;;;;;;;7.58;28.02;101907.94;5271597;27;33802;-94
2022/03/21 08:36:00;;;;;;;6.87;4.47;;;;;;;7.87;27.73;101902.88;5252375;27;33655;-95
2022/03/21 08:38:31;;;;;;;8.23;3.80;;;;;;;7.02;28.53;101897.34;5273682;27;33680;-94
2022/03/21 08:41:01;;;;;;;5.90;3.30;;;;;;;6.88;28.63;101889.91;5253171;27;33410;-94
2022/03/21 08:43:30;;;;;;;8.85;4.87;;;;;;;7.67;27.74;101897.03;5259482;27;33008;-94
2022/03/21 08:45:59;;;;;;;6.53;4.07;;;;;;;7.80;27.81;101893.16;5271325;27;33841;-95
2022/03/21 08:51:24;;;;;;;5.70;3.90;;;;;;;7.04;28.68;101887.09;5252814;27;32382;-94
2022/03/21 08:53:55;;;;;;;7.55;5.12;;;;;;;7.42;28.24;101887.59;5271699;27;33918;-95
2022/03/21 08:56:28;;;;;;;7.43;4.75;;;;;;;7.63;27.95;101879.66;5251824;27;33128;-96
2022/03/21 08:59:18;;;;;;;7.00;4.22;;;;;;;7.44;28.12;101885.91;5278520;27;32655;-94
2022/03/21 09:01:53;;;;;;;6.55;4.22;;;;;;;7.80;27.87;101881.09;5278961;27;33575;-94
2022/03/21 09:04:22;;;;;;;7.00;4.50;;;;;;;7.52;28.41;101884.47;5254158;27;34311;-94
2022/03/21 09:06:56;;;;;;;8.55;5.40;;;;;;;7.41;28.51;101876.34;5272310;27;33879;-94
2022/03/21 09:09:24;;;;;;;6.15;4.53;;;;;;;7.58;28.44;101884.69;5254496;27;32944;-94
2022/03/21 09:11:57;;;;;;;6.75;4.20;;;;;;;8.17;27.78;101865.94;5272020;27;34007;-94
2022/03/21 09:14:26;;;;;;;6.65;3.78;;;;;;;8.10;27.58;101868.31;5279549;27;34299;-96
2022/03/21 09:17:55;;;;;;;7.90;4.62;;;;;;;8.42;27.24;101872.78;5252997;27;32691;-94
2022/03/21 09:20:31;;;;;;;7.03;4.50;;;;;;;8.28;26.68;101872.31;5278978;27;34013;-93
2022/03/21 09:24:10;;;;;;;6.75;3.47;;;;;;;8.36;27.14;101867.37;5258675;27;32374;-95
2022/03/21 09:26:41;;;;;;;7.85;3.85;;;;;;;8.97;26.77;101864.94;5260242;27;32452;-96
2022/03/21 09:29:28;;;;;;;6.82;5.07;;;;;;;8.32;26.96;101859.53;5254456;27;33475;-96
2022/03/21 09:32:37;;;;;;;8.88;5.20;;;;;;;8.82;26.73;101867.09;5256620;27;34512;-96
2022/03/21 09:36:10;;;;;;;7.97;5.25;;;;;;;8.49;26.99;101862.66;5255707;27;33147;-96
2022/03/21 09:39:24;;;;;;;5.37;3.30;;;;;;;8.91;26.60;101862.16;5256259;27;34314;-95
2022/03/21 09:42:19;;;;;;;9.25;4.75;;;;;;;8.84;26.30;101860.22;5254400;27;33280;-95
2022/03/21 09:45:49;;;;;;;7.20;4.50;;;;;;;9.56;25.37;101856.13;5250473;27;33023;-96
2022/03/21 09:49:40;;;;;;;4.60;3.12;;;;;;;9.47;25.02;101851.59;5254014;27;34597;-96
2022/03/21 09:53:29;;;;;;;6.65;4.30;;;;;;;9.59;24.54;101851.00;5254160;27;33879;-94
2022/03/21 09:57:20;;;;;;;6.25;3.87;;;;;;;9.62;24.58;101853.72;5257106;27;33604;-95
2022/03/21 10:00:32;;;;;;;6.03;3.30;;;;;;;9.49;23.19;101849.91;5257190;27;33286;-96
2022/03/21 10:03:33;;;;;;;8.27;4.68;;;;;;;9.79;23.21;101842.03;5256607;27;33880;-96
2022/03/21 10:06:49;;;;;;;4.75;3.00;;;;;;;9.21;24.35;101850.03;5259138;27;32895;-96
2022/03/21 10:09:37;;;;;;;6.40;3.60;;;;;;;10.10;22.72;101844.47;5256879;27;32716;-95
2022/03/21 10:12:29;;;;;;;5.32;3.58;;;;;;;9.34;23.17;101840.03;5258140;27;34123;-95
2022/03/21 10:15:28;;;;;;;6.97;3.12;;;;;;;9.81;22.99;101826.53;5254936;27;35269;-96
2022/03/21 10:18:58;;;;;;;5.28;3.37;;;;;;;10.17;22.74;101836.91;5257758;27;33983;-94
2022/03/21 10:22:43;;;;;;;6.95;3.85;;;;;;;10.28;22.23;101831.06;5255820;27;32949;-94
2022/03/21 10:25:37;;;;;;;5.90;4.15;;;;;;;10.19;23.46;101823.94;5251035;27;34122;-96
2022/03/21 10:29:26;;;;;;;5.20;3.40;;;;;;;9.85;23.26;101825.75;5248662;27;34237;-95
2022/03/21 10:32:48;;;;;;;5.95;3.95;;;;;;;10.00;22.84;101823.53;5245238;27;33656;-96
2022/03/21 10:35:22;;;;;;;9.68;5.57;;;;;;;10.46;22.24;101813.31;5252318;27;33398;-95
2022/03/21 10:38:32;;;;;;;5.00;3.92;;;;;;;10.64;22.62;101818.91;5232439;27;33046;-95
2022/03/21 10:42:25;;;;;;;5.32;3.62;;;;;;;10.15;23.08;101807.44;5232221;27;32886;-96
2022/03/21 10:46:02;;;;;;;6.40;3.15;;;;;;;10.71;21.61;101806.06;5252402;27;33506;-95
2022/03/21 10:49:02;;;;;;;6.45;4.18;;;;;;;10.15;22.49;101791.03;5271905;27;32655;-96
2022/03/21 10:51:58;;;;;;;7.43;4.57;;;;;;;10.37;23.10;101800.19;5233860;27;32812;-93
2022/03/21 10:54:55;;;;;;;7.05;3.87;;;;;;;10.24;22.32;101797.28;5256036;27;32689;-93
2022/03/21 10:57:49;;;;;;;6.80;4.45;;;;;;;11.33;20.96;101795.97;5270557;27;33043;-95
2022/03/21 11:01:36;;;;;;;5.35;3.97;;;;;;;11.47;20.71;101778.00;5253123;27;34908;-94
2022/03/21 11:04:50;;;;;;;6.25;3.83;;;;;;;11.81;20.43;101776.81;5258390;27;33937;-96
2022/03/21 11:08:22;;;;;;;6.57;3.60;;;;;;;11.35;20.89;101767.41;5258365;27;34360;-95
2022/03/21 11:11:33;;;;;;;4.87;3.17;;;;;;;11.42;20.62;101770.13;5274005;27;34496;-96
2022/03/21 11:14:54;;;;;;;5.12;2.62;;;;;;;11.07;21.20;101767.81;5229921;27;33743;-95
2022/03/21 11:18:28;;;;;;;9.00;3.50;;;;;;;10.03;21.41;101781.25;5268243;27;32763;-95
2022/03/21 11:21:58;;;;;;;4.47;3.17;;;;;;;10.95;20.73;101767.59;5267089;27;35321;-95
2022/03/21 11:25:48;;;;;;;6.55;3.70;;;;;;;11.28;20.56;101764.72;5251411;27;33838;-95
2022/03/21 11:28:48;;;;;;;5.40;3.58;;;;;;;11.62;20.30;101747.09;5260229;27;35091;-96
2022/03/21 11:32:22;;;;;;;11.90;3.53;;;;;;;11.19;20.42;101751.56;5254789;27;33351;-95
2022/03/21 11:36:19;;;;;;;6.47;3.97;;;;;;;11.85;19.59;101742.22;5260249;27;35258;-96
2022/03/21 11:39:30;;;;;;;6.43;3.72;;;;;;;11.03;20.75;101747.81;5272246;27;33180;-96
2022/03/21 11:42:43;;;;;;;5.78;4.40;;;;;;;10.62;21.00;101744.44;5257151;27;34570;-96
2022/03/21 11:46:01;;;;;;;4.50;3.50;;;;;;;10.88;20.90;101734.56;5276286;27;34581;-96
2022/03/21 11:49:19;;;;;;;5.93;3.65;;;;;;;11.74;19.99;101733.38;5252624;27;33006;-96
2022/03/21 11:53:49;;;;;;;6.30;4.32;;;;;;;11.15;20.80;101728.97;5254950;27;32881;-96
2022/03/21 11:57:24;;;;;;;5.85;3.20;;;;;;;11.80;19.94;101723.06;5268815;27;34508;-95
2022/03/21 12:01:45;;;;;;;;;;;;;;;;;;;;;
2022/03/21 12:05:36;;;;;;;7.53;3.50;;;;;;;12.01;19.87;101717.34;5272204;27;32882;-95
2022/03/21 12:09:16;;;;;;;5.60;3.15;;;;;;;11.59;19.71;101712.34;5256814;27;33091;-95
2022/03/21 12:12:56;;;;;;;7.37;4.72;;;;;;;12.31;18.84;101709.03;5206568;27;33722;-96
2022/03/21 12:17:11;;;;;;;9.02;3.90;;;;;;;12.99;19.04;101686.28;5207815;27;35552;-96
2022/03/21 12:20:27;;;;;;;5.35;3.22;;;;;;;13.31;18.69;101686.59;5207527;27;33390;-96
2022/03/21 12:23:35;;;;;;;6.30;3.85;;;;;;;13.41;18.42;101677.13;5204068;27;32691;-94
2022/03/21 12:27:14;;;;;;;6.15;3.17;;;;;;;13.18;18.67;101669.94;5208355;27;34278;-95
2022/03/21 12:30:48;;;;;;;6.50;3.33;;;;;;;13.50;18.46;101663.25;5220277;27;33962;-94
2022/03/21 12:34:37;;;;;;;5.18;3.03;;;;;;;13.39;18.64;101652.78;5256216;27;32745;-96
2022/03/21 12:37:24;;;;;;;6.62;3.33;;;;;;;12.35;18.75;101656.16;5272645;27;33058;-95
2022/03/21 12:39:55;;;;;;;4.62;2.78;;;;;;;13.22;18.51;101645.66;5240426;27;31979;-94
2022/03/21 12:42:27;;;;;;;7.07;4.05;;;;;;;13.32;18.46;101644.03;5268202;27;32508;-94
2022/03/21 12:44:56;;;;;;;5.18;3.28;;;;;;;13.42;18.29;101648.44;5270797;27;33662;-94
2022/03/21 12:47:25;;;;;;;8.80;3.85;;;;;;;13.94;17.68;101641.75;5268431;27;34234;-94
2022/03/21 12:49:55;;;;;;;7.93;3.90;;;;;;;13.20;18.16;101633.50;5268955;27;33821;-94
2022/03/21 12:52:28;;;;;;;4.95;3.03;;;;;;;13.77;17.96;101639.97;5271957;27;32902;-94
2022/03/21 12:55:00;;;;;;;5.57;3.40;;;;;;;13.51;18.33;101632.00;5257556;27;32420;-94
2022/03/21 12:57:32;;;;;;;5.18;2.60;;;;;;;13.03;17.91;101630.75;5273359;27;33849;-94
2022/03/21 13:00:19;;;;;;;3.85;2.45;;;;;;;12.91;17.71;101634.13;5271552;27;33937;-94
2022/03/21 13:02:48;;;;;;;6.43;2.97;;;;;;;13.23;18.44;101629.16;5270823;27;33136;-93
2022/03/21 13:10:54;;;;;;;4.03;2.60;;;;;;;13.73;17.16;101634.72;5276550;27;34456;-95
2022/03/21 13:13:52;;;;;;;5.65;3.45;;;;;;;13.82;17.23;101621.69;5279856;27;33517;-94
2022/03/21 13:16:23;;;;;;;5.45;3.10;;;;;;;14.71;16.62;101616.72;5261208;27;33338;-95
2022/03/21 13:18:56;;;;;;;6.53;3.33;;;;;;;15.03;16.33;101619.38;5275837;27;35122;-95
2022/03/21 13:21:24;;;;;;;;;;;;;;;15.06;16.65;101614.13;5273615;27;34062;-94
2022/03/21 13:23:54;;;;;;;3.83;2.55;;;;;;;14.66;16.03;101610.63;5251496;27;32921;-95
2022/03/21 13:26:25;;;;;;;;;;;;;;;14.43;16.67;101611.44;5252937;27;32844;-95
2022/03/21 13:29:04;;;;;;;;;;;;;;;14.76;16.32;101603.66;5278128;27;34150;-95
2022/03/21 13:31:34;;;;;;;;;;;;;;;14.98;15.97;101601.91;5273550;27;33735;-94
2022/03/21 13:34:05;;;;;;;;;;;;;;;14.59;16.61;101598.44;5271105;27;33083;-95
2022/03/21 13:36:33;;;;;;;;;;;;;;;14.96;16.31;101599.31;5254291;27;35265;-94
2022/03/21 13:39:11;;;;;;;;;;;;;;;15.63;16.23;101586.97;5271396;27;34202;-94
2022/03/21 13:41:55;;;;;;;;;;;;;;;15.95;16.67;101589.50;5271702;27;34709;-95
2022/03/21 13:44:27;;;;;;;;;;;;;;;15.64;15.95;101596.56;5278027;27;33350;-94
2022/03/21 13:46:59;;;;;;;;;;;;;;;15.87;16.61;101596.50;5275108;27;34283;-95
2022/03/21 13:49:41;;;;;;;;;;;;;;;15.03;16.32;101587.09;5253929;27;32107;-95
2022/03/21 13:52:09;;;;;;;;;;;;;;;16.15;16.42;101587.62;5273671;27;34227;-94
2022/03/21 13:54:54;;;;;;;;;;;;;;;15.13;15.77;101584.50;5272335;27;33258;-95
2022/03/21 13:57:23;;;;;;;;;;;;;;;15.19;16.00;101583.59;5237447;27;33316;-95
2022/03/21 14:00:00;;;;;;;;;;;;;;;16.18;15.42;101571.03;5255656;27;33500;-95
2022/03/21 14:03:00;;;;;;;;;;;;;;;15.66;15.47;101568.66;5278583;27;34585;-95
2022/03/21 14:05:56;;;;;;;;;;;;;;;14.50;16.26;101566.19;5258798;27;33420;-96
2022/03/21 14:08:25;;;;;;;;;;;;;;;15.55;16.59;101568.69;5255990;27;33904;-95
2022/03/21 14:11:02;;;;;;;;;;;;;;;15.88;15.77;101569.47;5274447;27;33897;-94
2022/03/21 14:13:37;;;;;;;;;;;;;;;16.19;15.22;101562.31;5255501;27;34272;-95
2022/03/21 14:16:09;;;;;;;;;;;;;;;15.42;15.82;101569.63;5271737;27;33035;-94
2022/03/21 14:18:38;;;;;;;;;;;;;;;15.89;15.01;101558.09;5272542;27;33888;-94
2022/03/21 14:21:09;;;;;;;;;;;;;;;15.91;15.16;101564.19;5278932;27;34683;-92
2022/03/21 14:23:43;;;;;;;;;;;;;;;15.32;15.77;101563.53;5253546;27;32423;-94
2022/03/21 14:26:37;;;;;;;;;;;;;;;14.94;15.78;101560.13;5252248;27;32491;-94
2022/03/21 14:29:06;;;;;;;;;;;;;;;16.26;15.12;101564.00;5272884;27;33297;-93
2022/03/21 14:31:36;;;;;;;;;;;;;;;16.61;14.85;101548.00;5271380;27;34273;-94